createdAt,value
2022-11-24T00:03:42.657Z,9.5
2022-11-24T00:09:25.921Z,10.3
2022-11-24T00:15:09.357Z,7.8
2022-11-24T00:20:58.131Z,7.5
2022-11-24T00:26:41.091Z,8.7
2022-11-24T00:32:24.367Z,9.3
2022-11-24T00:38:07.477Z,10
2022-11-24T00:43:50.609Z,10.9
2022-11-24T00:49:33.737Z,10.8
2022-11-24T00:55:16.842Z,11.2
2022-11-24T01:01:04.108Z,12.1
2022-11-24T01:06:47.068Z,13.3
2022-11-24T01:12:30.454Z,11.4
2022-11-24T01:18:13.447Z,11.8
2022-11-24T01:23:56.649Z,14.4
2022-11-24T01:29:39.737Z,10.3
2022-11-24T01:35:23.035Z,12.9
2022-11-24T01:41:09.767Z,11.4
2022-11-24T01:46:55.049Z,10.6
2022-11-24T01:52:40.383Z,10.7
2022-11-24T01:58:26.301Z,11.9
2022-11-24T02:04:12.571Z,10.5
2022-11-24T02:09:58.322Z,9.7
2022-11-24T02:15:42.660Z,12.7
2022-11-24T02:21:25.786Z,13.9
2022-11-24T02:27:08.956Z,11.3
2022-11-24T02:32:52.517Z,13.1
2022-11-24T02:38:37.682Z,13.5
2022-11-24T02:44:22.700Z,15.7
2022-11-24T02:50:06.222Z,11.6
2022-11-24T02:55:50.325Z,13.4
2022-11-24T03:01:33.565Z,8.9
2022-11-24T03:07:18.042Z,9.7
2022-11-24T03:13:01.031Z,11.4
2022-11-24T03:18:44.124Z,11.8
2022-11-24T03:24:27.081Z,16.5
2022-11-24T03:30:10.867Z,7.9
2022-11-24T03:35:53.805Z,11.4
2022-11-24T03:41:36.857Z,9.2
2022-11-24T03:47:19.763Z,7.8
2022-11-24T03:53:02.672Z,9.7
2022-11-24T03:58:45.869Z,6.6
2022-11-24T04:04:29.045Z,5.9
2022-11-24T04:10:12.765Z,6.7
2022-11-24T04:15:56.162Z,5.8
2022-11-24T04:21:40.147Z,5.8
2022-11-24T04:27:23.179Z,5.1
2022-11-24T04:33:06.235Z,3.8
2022-11-24T04:39:20.291Z,4.6
2022-11-24T04:44:52.306Z,3.3
2022-11-24T04:50:35.380Z,5.1
2022-11-24T04:56:18.309Z,5
2022-11-24T05:02:02.044Z,4.7
2022-11-24T05:07:45.658Z,4.5
2022-11-24T05:13:28.653Z,4.9
2022-11-24T05:19:12.684Z,3.7
2022-11-24T05:24:56.584Z,5.4
2022-11-24T05:30:40.064Z,6.3
2022-11-24T05:36:23.252Z,5.2
2022-11-24T05:42:07.153Z,6.6
2022-11-24T05:47:50.872Z,6.5
2022-11-24T05:53:33.719Z,5.4
2022-11-24T05:59:16.748Z,5.1
2022-11-24T06:04:59.818Z,5.8
2022-11-24T06:10:42.752Z,8.1
2022-11-24T06:16:26.207Z,4.9
2022-11-24T06:22:09.435Z,6.1
2022-11-24T06:27:52.506Z,4.6
2022-11-24T06:33:39.262Z,6.1
2022-11-24T06:39:22.309Z,5.9
2022-11-24T06:45:11.524Z,5.8
2022-11-24T06:50:55.087Z,6.8
2022-11-24T06:56:38.441Z,7.1
2022-11-24T07:02:21.155Z,4.3
2022-11-24T07:08:05.267Z,6
2022-11-24T07:13:48.786Z,6
2022-11-24T07:19:31.801Z,6.6
2022-11-24T07:25:15.088Z,3.4
2022-11-24T07:30:58.579Z,4.8
2022-11-24T07:36:44.728Z,5.7
2022-11-24T07:42:27.534Z,6.1
2022-11-24T07:48:10.717Z,5.2
2022-11-24T07:53:53.726Z,6.6
2022-11-24T07:59:36.608Z,5.5
2022-11-24T08:05:19.746Z,7.5
2022-11-24T08:11:06.467Z,4.4
2022-11-24T08:16:49.884Z,5
2022-11-24T08:22:32.967Z,6.1
2022-11-24T08:28:17.263Z,5.3
2022-11-24T08:34:01.537Z,4.4
2022-11-24T08:39:44.603Z,5.5
2022-11-24T08:45:41.091Z,6.8
2022-11-24T08:51:26.151Z,3.6
2022-11-24T08:57:09.564Z,7.5
2022-11-24T09:02:54.782Z,4.8
2022-11-24T09:08:38.030Z,4.5
2022-11-24T09:14:22.074Z,5.7
2022-11-24T09:20:05.044Z,4.5
2022-11-24T09:25:48.073Z,7.4
2022-11-24T09:31:33.598Z,4.4
2022-11-24T09:37:16.777Z,4.3
2022-11-24T09:43:02.985Z,6.5
2022-11-24T09:48:48.801Z,6.3
2022-11-24T09:54:32.993Z,5.8
2022-11-24T10:00:17.507Z,6.5
2022-11-24T10:06:01.689Z,10.2
2022-11-24T10:11:46.738Z,6.2
2022-11-24T10:17:36.758Z,8.9
2022-11-24T10:23:27.762Z,5.6
2022-11-24T10:29:19.448Z,4.7
2022-11-24T10:35:05.385Z,5.2
2022-11-24T10:41:00.496Z,5.1
2022-11-24T10:46:44.023Z,6
2022-11-24T10:52:27.328Z,7.3
2022-11-24T10:58:20.208Z,6.6
2022-11-24T11:04:03.110Z,8.9
2022-11-24T11:09:45.904Z,6.8
2022-11-24T11:15:32.727Z,8.1
2022-11-24T11:21:20.761Z,7.8
2022-11-24T11:27:07.911Z,5.4
2022-11-24T11:39:01.071Z,5.5
2022-11-24T11:44:48.047Z,6.3
2022-11-24T11:51:06.965Z,6
2022-11-24T11:56:35.661Z,5.6
2022-11-24T12:02:28.111Z,8.1
2022-11-24T12:08:23.737Z,4.9
2022-11-24T12:14:14.280Z,5.4
2022-11-24T12:20:05.783Z,7.5
2022-11-24T12:25:51.998Z,7.1
2022-11-24T12:31:40.281Z,7.9
2022-11-24T12:37:30.909Z,4.5
2022-11-24T12:43:18.643Z,6
2022-11-24T12:49:07.120Z,6.4
2022-11-24T12:54:50.451Z,8.5
2022-11-24T13:00:37.233Z,7.1
2022-11-24T13:06:22.413Z,6.1
2022-11-24T13:12:16.463Z,6.3
2022-11-24T13:18:13.669Z,8.2
2022-11-24T13:24:02.472Z,10.5
2022-11-24T13:29:46.025Z,8.7
2022-11-24T13:35:29.166Z,6.5
2022-11-24T13:41:29.829Z,6.2
2022-11-24T13:47:19.241Z,9.3
2022-11-24T13:53:07.785Z,7.1
2022-11-24T13:58:52.068Z,8.2
2022-11-24T14:04:36.306Z,7.7
2022-11-24T14:10:22.486Z,9.9
2022-11-24T14:16:08.118Z,7.6
2022-11-24T14:21:51.838Z,8.9
2022-11-24T14:27:38.622Z,7.6
2022-11-24T14:33:22.575Z,6
2022-11-24T14:39:07.697Z,9.4
2022-11-24T14:44:52.961Z,7.8
2022-11-24T14:50:36.362Z,6.8
2022-11-24T14:56:30.077Z,8.5
2022-11-24T15:02:24.442Z,9.1
2022-11-24T15:08:07.427Z,5.3
2022-11-24T15:13:57.147Z,6.9
2022-11-24T15:19:42.132Z,7.6
2022-11-24T15:25:35.714Z,7.3
2022-11-24T15:31:19.596Z,7.1
2022-11-24T15:37:02.728Z,8.9
2022-11-24T15:42:46.749Z,9.3
2022-11-24T15:48:29.766Z,7.4
2022-11-24T15:54:15.551Z,7.9
2022-11-24T15:59:58.560Z,6.9
2022-11-24T16:05:41.880Z,7.8
2022-11-24T16:11:25.318Z,9.4
2022-11-24T16:17:08.489Z,6.7
2022-11-24T16:22:53.189Z,7.6
2022-11-24T16:28:37.546Z,7.3
2022-11-24T16:34:21.652Z,7
2022-11-24T16:40:05.107Z,8.2
2022-11-24T16:45:48.769Z,6.9
2022-11-24T16:51:37.301Z,9.2
2022-11-24T16:57:20.539Z,9.8
2022-11-24T17:03:03.685Z,8.1
2022-11-24T17:08:47.948Z,9.5
2022-11-24T17:14:31.447Z,7.1
2022-11-24T17:20:14.995Z,10.8
2022-11-24T17:26:02.940Z,10.2
2022-11-24T17:31:46.252Z,11.5
2022-11-24T17:37:29.643Z,9.3
2022-11-24T17:43:13.000Z,10.4
2022-11-24T17:48:56.329Z,8.7
2022-11-24T17:54:49.428Z,8.8
2022-11-24T18:00:32.489Z,11.6
2022-11-24T18:06:17.124Z,9.6
2022-11-24T18:12:00.028Z,10.3
2022-11-24T18:17:43.010Z,8.4
2022-11-24T18:23:26.201Z,9.7
2022-11-24T18:29:09.406Z,9.2
2022-11-24T18:34:52.228Z,10.6
2022-11-24T18:40:35.096Z,8.6
2022-11-24T18:46:19.576Z,7.7
2022-11-24T18:52:02.686Z,8.4
2022-11-24T18:57:45.701Z,6.8
2022-11-24T19:03:28.691Z,10.9
2022-11-24T19:09:14.363Z,10.6
2022-11-24T19:14:57.372Z,12.1
2022-11-24T19:20:40.493Z,8.6
2022-11-24T19:26:23.843Z,10.4
2022-11-24T19:32:07.607Z,8.7
2022-11-24T19:37:50.573Z,8.9
2022-11-24T19:43:34.809Z,11.6
2022-11-24T19:49:18.731Z,7
2022-11-24T19:55:01.687Z,8.8
2022-11-24T20:00:44.865Z,7.6
2022-11-24T20:06:29.713Z,9.3
2022-11-24T20:12:12.603Z,7.1
2022-11-24T20:17:56.713Z,7.1
2022-11-24T20:23:39.723Z,8.8
2022-11-24T20:29:23.071Z,8.3
2022-11-24T20:35:06.358Z,8.6
2022-11-24T20:40:49.445Z,8.3
2022-11-24T20:46:33.469Z,8.9
2022-11-24T20:52:16.415Z,8.2
2022-11-24T20:57:59.714Z,8.9
2022-11-24T21:03:45.992Z,8.4
2022-11-24T21:09:29.178Z,8
2022-11-24T21:15:12.630Z,6.4
2022-11-24T21:20:55.924Z,6
2022-11-24T21:26:41.339Z,8.3
2022-11-24T21:32:24.440Z,8
2022-11-24T21:38:07.634Z,7.1
2022-11-24T21:43:50.868Z,11.4
2022-11-24T21:49:34.151Z,8.8
2022-11-24T21:55:17.860Z,12
2022-11-24T22:01:03.997Z,9.7
2022-11-24T22:06:47.265Z,8.2
2022-11-24T22:12:31.328Z,10.4
2022-11-24T22:18:14.481Z,8.4
2022-11-24T22:23:57.695Z,9.3
2022-11-24T22:29:40.795Z,9.8
2022-11-24T22:35:23.869Z,7.6
2022-11-24T22:41:10.353Z,8.1
2022-11-24T22:46:53.449Z,9.3
2022-11-24T22:52:36.664Z,8.5
2022-11-24T22:58:19.771Z,8.1
2022-11-24T23:04:03.222Z,7.6
2022-11-24T23:09:46.381Z,8.4
2022-11-24T23:15:29.454Z,10.6
2022-11-24T23:21:13.949Z,5.7
2022-11-24T23:26:56.956Z,9.1
2022-11-24T23:32:40.113Z,8.2
2022-11-24T23:38:23.448Z,7.6
2022-11-24T23:44:07.257Z,5.9
2022-11-24T23:49:51.379Z,8.7
2022-11-24T23:55:34.509Z,7.6
